Time;durP1;ratioP1;P1;durP2;ratioP2;P2;SDS_P1;SDS_P2;PMS_P1;PMS_P2;Temp;Humidity;BMP_temperature;BMP_pressure;BME280_temperature;BME280_humidity;BME280_pressure;Samples;Min_cycle;Max_cycle;Signal;HPM_P1;HPM_P2
2023/07/24 00:00:40;;;;;;;2.50;1.67;;;20.30;99.90;;;;;;5033180;28;20462;-81
2023/07/24 00:03:07;;;;;;;10.47;2.90;;;20.30;99.90;;;;;;5033235;28;20454;-84
2023/07/24 00:05:35;;;;;;;5.13;2.40;;;20.30;99.90;;;;;;5033259;28;20459;-84
2023/07/24 00:08:02;;;;;;;4.53;1.80;;;20.20;99.90;;;;;;5033312;28;20454;-84
2023/07/24 00:10:29;;;;;;;3.40;2.00;;;20.30;99.90;;;;;;5033077;28;20513;-84
2023/07/24 00:12:56;;;;;;;2.47;1.77;;;20.20;99.90;;;;;;5033841;28;20466;-84
2023/07/24 00:15:23;;;;;;;2.97;2.00;;;20.00;99.90;;;;;;5033202;28;20450;-84
2023/07/24 00:17:50;;;;;;;4.60;2.17;;;19.70;99.90;;;;;;5032872;28;20446;-84
2023/07/24 00:20:17;;;;;;;2.03;1.40;;;19.60;99.90;;;;;;5033052;28;20446;-84
2023/07/24 00:22:45;;;;;;;3.57;1.80;;;19.50;99.90;;;;;;5033091;28;20453;-84
2023/07/24 00:25:11;;;;;;;2.10;1.57;;;19.40;99.90;;;;;;5032648;28;20998;-84
2023/07/24 00:27:38;;;;;;;3.10;1.80;;;19.30;99.90;;;;;;5032885;28;20419;-82
2023/07/24 00:30:06;;;;;;;3.87;2.10;;;19.30;99.90;;;;;;5032682;28;20831;-82
2023/07/24 00:32:33;;;;;;;3.73;2.30;;;19.20;99.90;;;;;;5032969;28;20953;-82
2023/07/24 00:35:00;;;;;;;6.40;1.83;;;19.10;99.90;;;;;;5032908;28;20453;-82
2023/07/24 00:37:26;;;;;;;6.00;3.00;;;19.10;99.90;;;;;;5032680;28;20442;-82
2023/07/24 00:39:54;;;;;;;6.17;3.17;;;19.10;99.90;;;;;;5032613;28;20450;-82
2023/07/24 00:42:21;;;;;;;3.17;2.37;;;19.00;99.90;;;;;;5032561;28;20821;-82
2023/07/24 00:44:48;;;;;;;5.47;2.30;;;19.00;99.90;;;;;;5032800;28;20455;-82
2023/07/24 00:47:15;;;;;;;3.13;1.87;;;19.00;99.90;;;;;;5032522;28;20446;-82
2023/07/24 00:49:42;;;;;;;4.50;1.50;;;19.10;99.90;;;;;;5032740;28;20490;-82
2023/07/24 00:52:09;;;;;;;3.33;1.70;;;19.10;99.90;;;;;;5032745;28;20473;-81
2023/07/24 00:54:36;;;;;;;3.93;1.80;;;19.10;99.90;;;;;;5032487;28;20462;-82
2023/07/24 00:57:05;;;;;;;6.30;2.30;;;19.20;99.90;;;;;;5032732;28;20446;-82
2023/07/24 00:59:33;;;;;;;3.23;1.60;;;19.20;99.90;;;;;;5033857;28;20454;-81
2023/07/24 01:01:59;;;;;;;3.23;2.03;;;19.20;99.90;;;;;;5036370;28;20477;-81
2023/07/24 01:04:26;;;;;;;3.77;1.77;;;19.10;99.90;;;;;;5036229;28;20454;-81
2023/07/24 01:06:53;;;;;;;2.70;1.77;;;19.10;99.90;;;;;;5036160;28;20450;-82
2023/07/24 01:09:20;;;;;;;4.77;1.50;;;19.10;99.90;;;;;;5035765;28;20927;-82
2023/07/24 01:11:48;;;;;;;2.13;1.60;;;19.10;99.90;;;;;;5036010;28;20474;-82
2023/07/24 01:14:23;;;;;;;4.43;2.17;;;19.00;99.90;;;;;;5036077;28;20477;-82
2023/07/24 01:16:53;;;;;;;3.60;1.83;;;19.00;99.90;;;;;;5036068;28;20430;-82
2023/07/24 01:19:37;;;;;;;4.80;2.30;;;19.00;99.90;;;;;;5036007;28;20607;-82
2023/07/24 01:22:13;;;;;;;3.53;1.50;;;19.00;99.90;;;;;;5035900;28;20528;-82
2023/07/24 01:24:53;;;;;;;4.70;2.73;;;19.00;99.90;;;;;;5035611;28;20419;-82
2023/07/24 01:27:25;;;;;;;6.27;2.23;;;19.00;99.90;;;;;;5035884;28;20419;-82
2023/07/24 01:29:51;;;;;;;4.00;2.10;;;19.10;99.90;;;;;;5035701;28;20470;-82
2023/07/24 01:32:19;;;;;;;2.90;1.73;;;19.00;99.90;;;;;;5035644;28;20478;-82
2023/07/24 01:34:46;;;;;;;5.37;2.10;;;19.00;99.90;;;;;;5035696;28;20446;-82
2023/07/24 01:37:14;;;;;;;6.73;2.50;;;19.00;99.90;;;;;;5035339;28;20447;-82
2023/07/24 01:39:42;;;;;;;7.07;2.03;;;19.00;99.90;;;;;;5035269;28;20465;-82
2023/07/24 01:42:09;;;;;;;4.13;2.30;;;19.00;99.90;;;;;;5035473;28;20471;-82
2023/07/24 01:44:37;;;;;;;4.70;1.87;;;19.00;99.90;;;;;;5036177;28;20812;-82
2023/07/24 01:47:05;;;;;;;2.53;2.30;;;19.20;99.90;;;;;;5035126;28;20794;-82
2023/07/24 01:49:31;;;;;;;2.00;1.87;;;19.10;99.90;;;;;;5035179;28;20950;-82
2023/07/24 01:51:58;;;;;;;4.73;1.77;;;19.10;99.90;;;;;;5035297;28;20473;-82
2023/07/24 01:54:25;;;;;;;7.53;2.10;;;19.20;99.90;;;;;;5035307;28;20454;-82
2023/07/24 01:56:53;;;;;;;3.53;2.17;;;19.20;99.90;;;;;;5035296;28;20454;-82
2023/07/24 01:59:19;;;;;;;3.73;2.10;;;19.20;99.90;;;;;;5036040;28;20457;-82
2023/07/24 02:01:47;;;;;;;4.67;3.00;;;19.20;99.90;;;;;;5034784;28;20974;-82
2023/07/24 02:04:14;;;;;;;2.23;1.63;;;19.20;99.90;;;;;;5035108;28;20455;-81
2023/07/24 02:06:41;;;;;;;5.30;2.53;;;19.20;99.90;;;;;;5034796;28;20963;-82
2023/07/24 02:09:07;;;;;;;5.80;2.70;;;19.30;99.90;;;;;;5034764;28;20441;-82
2023/07/24 02:11:34;;;;;;;3.60;1.83;;;19.20;99.90;;;;;;5033872;28;20489;-81
2023/07/24 02:14:01;;;;;;;5.60;2.63;;;19.20;99.90;;;;;;5034616;28;20955;-81
2023/07/24 02:16:28;;;;;;;5.03;2.30;;;19.30;99.90;;;;;;5034897;28;20443;-81
2023/07/24 02:18:56;;;;;;;4.60;2.07;;;19.30;99.90;;;;;;5034872;28;20447;-81
2023/07/24 02:21:22;;;;;;;2.50;1.73;;;19.20;99.90;;;;;;5034418;28;20474;-82
2023/07/24 02:23:49;;;;;;;3.90;2.67;;;19.20;99.90;;;;;;5034420;28;20439;-82
2023/07/24 02:26:16;;;;;;;4.13;2.30;;;19.20;99.90;;;;;;5034287;28;20490;-82
2023/07/24 02:28:43;;;;;;;3.90;2.03;;;19.20;99.90;;;;;;5034635;28;20454;-82
2023/07/24 02:31:09;;;;;;;8.33;2.03;;;19.20;99.90;;;;;;5034144;28;20498;-82
2023/07/24 02:33:36;;;;;;;5.60;1.97;;;19.20;99.90;;;;;;5034416;28;20457;-82
2023/07/24 02:36:05;;;;;;;4.60;2.00;;;19.20;99.90;;;;;;5035300;28;20458;-81
2023/07/24 02:38:31;;;;;;;4.10;2.40;;;19.20;99.90;;;;;;5034108;28;20934;-81
2023/07/24 02:40:58;;;;;;;7.37;2.03;;;19.20;99.90;;;;;;5034125;28;20467;-82
2023/07/24 02:43:25;;;;;;;3.60;1.53;;;19.20;99.90;;;;;;5034134;28;20434;-82
2023/07/24 02:45:52;;;;;;;4.43;2.00;;;19.10;99.90;;;;;;5034265;28;20450;-82
2023/07/24 02:48:19;;;;;;;4.60;2.17;;;19.10;99.90;;;;;;5034316;28;20557;-82
2023/07/24 02:50:48;;;;;;;8.10;2.30;;;19.10;99.90;;;;;;5033789;28;20486;-83
2023/07/24 02:53:16;;;;;;;3.70;2.17;;;19.10;99.90;;;;;;5034204;28;20439;-82
2023/07/24 02:55:44;;;;;;;5.70;2.10;;;19.00;99.90;;;;;;5033887;28;20458;-82
2023/07/24 02:58:12;;;;;;;6.00;2.63;;;19.00;99.90;;;;;;5033812;28;20873;-82
2023/07/24 03:00:38;;;;;;;6.13;1.80;;;19.00;99.90;;;;;;5034690;28;20830;-81
2023/07/24 03:03:05;;;;;;;6.97;2.63;;;19.10;99.90;;;;;;5034015;28;20451;-82
2023/07/24 03:05:32;;;;;;;4.03;2.30;;;19.00;99.90;;;;;;5033970;28;20451;-81
2023/07/24 03:07:59;;;;;;;4.63;2.40;;;19.00;99.90;;;;;;5033978;28;20459;-82
2023/07/24 03:10:27;;;;;;;4.97;1.80;;;19.10;99.90;;;;;;5033744;28;20492;-81
2023/07/24 03:12:54;;;;;;;3.23;2.07;;;19.00;99.90;;;;;;5033571;28;20812;-81
2023/07/24 03:15:21;;;;;;;3.53;1.93;;;19.10;99.90;;;;;;5033703;28;20815;-81
2023/07/24 03:17:48;;;;;;;2.60;1.10;;;19.00;99.90;;;;;;5033778;28;20451;-82
2023/07/24 03:20:17;;;;;;;3.67;1.70;;;19.10;99.90;;;;;;5033651;28;20455;-81
2023/07/24 03:22:44;;;;;;;2.40;1.57;;;19.10;99.90;;;;;;5033529;28;20450;-82
2023/07/24 03:25:11;;;;;;;2.60;1.93;;;19.10;99.90;;;;;;5033302;28;20475;-83
2023/07/24 03:27:39;;;;;;;3.60;1.97;;;19.10;99.90;;;;;;5033344;28;20435;-84
2023/07/24 03:30:07;;;;;;;4.70;2.20;;;19.10;99.90;;;;;;5033481;28;20478;-83
2023/07/24 03:32:34;;;;;;;3.23;1.90;;;19.10;99.90;;;;;;5033457;28;20466;-83
2023/07/24 03:35:00;;;;;;;3.50;2.10;;;19.10;99.90;;;;;;5033934;28;20450;-84
2023/07/24 03:37:27;;;;;;;3.90;1.87;;;19.00;99.90;;;;;;5033245;28;20454;-83
2023/07/24 03:39:54;;;;;;;4.93;2.10;;;19.10;99.90;;;;;;5033505;28;20450;-84
2023/07/24 03:42:27;;;;;;;2.33;1.87;;;19.10;99.90;;;;;;5033347;28;20466;-84
2023/07/24 03:44:56;;;;;;;3.03;1.50;;;19.10;99.90;;;;;;5033090;28;20451;-84
2023/07/24 03:47:23;;;;;;;7.80;2.87;;;19.00;99.90;;;;;;5033319;28;20454;-84
2023/07/24 03:49:50;;;;;;;3.23;1.40;;;19.00;99.90;;;;;;5033109;28;20438;-84
2023/07/24 03:52:16;;;;;;;2.70;1.83;;;19.00;99.90;;;;;;5032916;28;20987;-83
2023/07/24 03:54:43;;;;;;;3.90;1.43;;;18.90;99.90;;;;;;5033292;28;20450;-83
2023/07/24 03:57:10;;;;;;;8.07;2.73;;;19.10;99.90;;;;;;5033817;28;20455;-83
2023/07/24 03:59:37;;;;;;;4.77;2.43;;;19.00;99.90;;;;;;5033276;28;20446;-84
2023/07/24 04:02:05;;;;;;;3.90;2.20;;;19.10;99.90;;;;;;5033154;28;20467;-83
2023/07/24 04:04:32;;;;;;;4.90;2.30;;;19.10;99.90;;;;;;5033204;28;20454;-84
2023/07/24 04:06:59;;;;;;;2.93;1.70;;;19.20;99.90;;;;;;5032876;28;20458;-83
2023/07/24 04:09:26;;;;;;;6.40;2.20;;;19.20;99.90;;;;;;5033146;28;20447;-82
2023/07/24 04:11:52;;;;;;;3.83;1.87;;;19.30;99.90;;;;;;5033031;28;20497;-82
2023/07/24 04:14:19;;;;;;;5.57;2.90;;;19.30;99.90;;;;;;5032833;28;20969;-82
2023/07/24 04:16:46;;;;;;;2.60;1.33;;;19.20;99.90;;;;;;5032761;28;20446;-82
2023/07/24 04:19:14;;;;;;;3.00;2.20;;;19.20;99.90;;;;;;5033373;28;20435;-82
2023/07/24 04:21:41;;;;;;;4.30;2.30;;;19.10;99.90;;;;;;5032971;28;20471;-82
2023/07/24 04:24:07;;;;;;;6.10;2.60;;;19.10;99.90;;;;;;5032690;28;20446;-83
2023/07/24 04:26:34;;;;;;;4.10;2.30;;;19.00;99.90;;;;;;5032508;28;21020;-82
2023/07/24 04:29:01;;;;;;;4.07;2.70;;;19.00;99.90;;;;;;5032995;28;20451;-83
2023/07/24 04:31:28;;;;;;;7.73;2.40;;;19.00;99.90;;;;;;5032785;28;20853;-84
2023/07/24 04:33:54;;;;;;;4.33;2.13;;;19.00;99.90;;;;;;5032892;28;20451;-84
2023/07/24 04:36:22;;;;;;;7.70;1.90;;;19.10;99.90;;;;;;5036766;28;20455;-84
2023/07/24 04:38:49;;;;;;;5.57;2.60;;;19.10;99.90;;;;;;5036399;28;20439;-84
2023/07/24 04:41:16;;;;;;;6.73;2.63;;;19.10;99.90;;;;;;5036326;28;20490;-84
2023/07/24 04:43:43;;;;;;;4.90;2.33;;;19.10;99.90;;;;;;5036470;28;20463;-83
2023/07/24 04:46:10;;;;;;;2.13;1.80;;;19.00;99.90;;;;;;5036326;28;20431;-84
2023/07/24 04:48:36;;;;;;;3.67;2.47;;;19.00;99.90;;;;;;5036517;28;20450;-84
2023/07/24 04:51:03;;;;;;;6.30;2.30;;;19.00;99.90;;;;;;5036133;28;20486;-84
2023/07/24 04:53:31;;;;;;;4.53;2.00;;;19.10;99.90;;;;;;5036466;28;20457;-84
2023/07/24 04:55:58;;;;;;;3.73;1.63;;;19.10;99.90;;;;;;5036410;28;20457;-84
2023/07/24 04:58:25;;;;;;;6.37;2.30;;;19.10;99.90;;;;;;5036163;28;20434;-84
2023/07/24 05:00:51;;;;;;;3.13;2.10;;;19.10;99.90;;;;;;5036011;28;20474;-84
2023/07/24 05:03:19;;;;;;;4.83;2.63;;;19.10;99.90;;;;;;5036260;28;20465;-84
2023/07/24 05:05:49;;;;;;;3.90;2.27;;;19.10;99.90;;;;;;5036469;28;20450;-84
2023/07/24 05:08:16;;;;;;;5.87;2.30;;;19.10;99.90;;;;;;5036215;28;20454;-84
2023/07/24 05:10:44;;;;;;;5.33;2.70;;;19.10;99.90;;;;;;5035830;28;20982;-84
2023/07/24 05:13:10;;;;;;;3.77;2.03;;;19.20;99.90;;;;;;5036094;28;20462;-83
2023/07/24 05:15:37;;;;;;;9.40;2.77;;;19.20;99.90;;;;;;5036661;28;20458;-83
2023/07/24 05:18:04;;;;;;;5.70;2.53;;;19.20;99.90;;;;;;5035937;28;20822;-84
2023/07/24 05:20:31;;;;;;;1.97;1.43;;;19.20;99.90;;;;;;5035649;28;21001;-84
2023/07/24 05:22:57;;;;;;;3.73;2.00;;;19.20;99.90;;;;;;5035725;28;20435;-84
2023/07/24 05:25:24;;;;;;;5.90;2.70;;;19.20;99.90;;;;;;5035450;28;20474;-83
2023/07/24 05:27:52;;;;;;;6.00;2.50;;;19.20;99.90;;;;;;5035577;28;20943;-83
2023/07/24 05:30:19;;;;;;;3.10;2.13;;;19.20;99.90;;;;;;5035425;28;20966;-83
2023/07/24 05:32:45;;;;;;;3.43;2.13;;;19.20;99.90;;;;;;5035366;28;20478;-84
2023/07/24 05:35:12;;;;;;;5.17;2.00;;;19.20;99.90;;;;;;5035794;28;20454;-84
2023/07/24 05:37:39;;;;;;;4.70;2.40;;;19.20;99.90;;;;;;5035333;28;20946;-81
2023/07/24 05:40:07;;;;;;;2.87;2.40;;;19.10;99.90;;;;;;5035558;28;20462;-81
2023/07/24 05:42:38;;;;;;;6.67;3.10;;;19.10;99.90;;;;;;5035427;28;20488;-81
2023/07/24 05:45:08;;;;;;;7.63;2.37;;;19.10;99.90;;;;;;5035701;28;20435;-81
2023/07/24 05:47:35;;;;;;;6.10;2.10;;;19.10;99.90;;;;;;5035147;28;20450;-81
2023/07/24 05:50:02;;;;;;;3.63;2.10;;;19.10;99.90;;;;;;5035397;28;20453;-81
2023/07/24 05:52:29;;;;;;;5.63;2.67;;;19.00;99.90;;;;;;5035231;28;20525;-81
2023/07/24 05:54:56;;;;;;;3.33;2.00;;;19.10;99.90;;;;;;5034985;28;20931;-81
2023/07/24 05:57:22;;;;;;;4.63;2.50;;;19.00;99.90;;;;;;5034960;28;20951;-81
2023/07/24 05:59:50;;;;;;;4.83;2.00;;;19.00;99.90;;;;;;5035209;28;20446;-81
2023/07/24 06:02:18;;;;;;;8.27;2.90;;;19.00;99.90;;;;;;5035245;28;20516;-81
2023/07/24 06:04:45;;;;;;;2.80;1.70;;;19.00;99.90;;;;;;5035190;28;20458;-81
2023/07/24 06:07:12;;;;;;;2.10;1.83;;;19.10;99.90;;;;;;5035380;28;20454;-84
2023/07/24 06:09:39;;;;;;;4.83;2.43;;;19.00;99.90;;;;;;5034911;28;20439;-83
2023/07/24 06:12:06;;;;;;;3.00;2.10;;;18.90;99.90;;;;;;5035234;28;20490;-83
2023/07/24 06:14:33;;;;;;;2.93;1.63;;;18.90;99.90;;;;;;5034951;28;20458;-81
2023/07/24 06:16:59;;;;;;;5.50;2.43;;;18.90;99.90;;;;;;5034899;28;20458;-81
2023/07/24 06:19:27;;;;;;;3.83;2.43;;;19.00;99.90;;;;;;5034596;28;20810;-82
2023/07/24 06:21:54;;;;;;;4.43;2.33;;;19.00;99.90;;;;;;5034503;28;20469;-81
2023/07/24 06:24:21;;;;;;;4.77;2.60;;;19.00;99.90;;;;;;5034897;28;20454;-81
2023/07/24 06:26:48;;;;;;;6.47;1.93;;;19.10;99.90;;;;;;5034679;28;20525;-81
2023/07/24 06:29:15;;;;;;;6.03;2.73;;;19.10;99.90;;;;;;5034323;28;20828;-81
2023/07/24 06:31:42;;;;;;;5.50;2.13;;;19.10;99.90;;;;;;5034480;28;20625;-81
2023/07/24 06:34:09;;;;;;;4.47;2.13;;;19.20;99.90;;;;;;5034569;28;20458;-81
2023/07/24 06:36:37;;;;;;;4.20;2.60;;;19.40;99.90;;;;;;5034534;28;20442;-84
2023/07/24 06:39:03;;;;;;;5.33;2.60;;;19.40;99.90;;;;;;5034235;28;20435;-84
2023/07/24 06:41:30;;;;;;;4.53;2.00;;;19.40;99.90;;;;;;5034090;28;20462;-84
2023/07/24 06:43:57;;;;;;;4.20;2.67;;;19.50;99.90;;;;;;5034258;28;20454;-83
2023/07/24 06:46:24;;;;;;;3.63;1.97;;;19.50;99.90;;;;;;5034462;28;20450;-84
2023/07/24 06:48:50;;;;;;;3.70;2.13;;;19.60;99.90;;;;;;5034351;28;20813;-84
2023/07/24 06:51:17;;;;;;;6.37;2.83;;;19.60;99.90;;;;;;5034252;28;20470;-84
2023/07/24 06:53:45;;;;;;;2.70;1.80;;;19.70;99.90;;;;;;5034342;28;20438;-84
2023/07/24 06:56:12;;;;;;;4.57;2.20;;;19.70;99.90;;;;;;5034294;28;20458;-84
2023/07/24 06:58:39;;;;;;;6.47;3.17;;;19.70;99.90;;;;;;5033472;28;20938;-84
2023/07/24 07:01:06;;;;;;;5.03;2.37;;;19.80;99.90;;;;;;5033822;28;20466;-84
2023/07/24 07:03:34;;;;;;;4.50;2.90;;;19.90;99.90;;;;;;5034126;28;20450;-84
2023/07/24 07:06:02;;;;;;;7.60;2.77;;;20.00;99.90;;;;;;5034038;28;20496;-84
2023/07/24 07:08:29;;;;;;;3.40;2.30;;;20.10;99.90;;;;;;5034061;28;20451;-83
2023/07/24 07:10:57;;;;;;;2.30;1.40;;;20.20;99.90;;;;;;5033967;28;20478;-83
2023/07/24 07:13:25;;;;;;;5.60;2.97;;;20.20;99.90;;;;;;5033634;28;20474;-82
2023/07/24 07:15:52;;;;;;;4.70;2.57;;;20.30;99.90;;;;;;5033891;28;21060;-81
2023/07/24 07:18:19;;;;;;;6.17;2.70;;;20.40;99.90;;;;;;5033690;28;21025;-81
2023/07/24 07:20:47;;;;;;;5.03;2.57;;;20.40;99.90;;;;;;5033589;28;20485;-81
2023/07/24 07:23:14;;;;;;;9.27;3.23;;;20.40;99.90;;;;;;5033744;28;20454;-81
2023/07/24 07:25:43;;;;;;;12.43;2.20;;;20.40;99.90;;;;;;5033350;28;20473;-80
2023/07/24 07:28:11;;;;;;;2.50;1.73;;;20.40;99.90;;;;;;5033611;28;20496;-80
2023/07/24 07:30:37;;;;;;;3.00;2.40;;;20.50;99.90;;;;;;5033552;28;20466;-81
2023/07/24 07:33:05;;;;;;;5.57;3.20;;;20.50;99.90;;;;;;5033513;28;20501;-81
2023/07/24 07:35:32;;;;;;;3.83;2.70;;;20.50;99.90;;;;;;5033572;28;20452;-81
2023/07/24 07:37:59;;;;;;;5.07;2.40;;;20.60;99.90;;;;;;5033224;28;20934;-81
2023/07/24 07:40:26;;;;;;;4.20;2.60;;;20.70;99.90;;;;;;5033336;28;20454;-82
2023/07/24 07:42:53;;;;;;;3.40;2.00;;;20.70;99.90;;;;;;5033511;28;20442;-83
2023/07/24 07:45:21;;;;;;;4.87;2.87;;;20.90;99.90;;;;;;5033497;28;20454;-83
2023/07/24 07:47:48;;;;;;;5.17;3.03;;;21.00;99.90;;;;;;5033217;28;20795;-83
2023/07/24 07:50:15;;;;;;;4.77;2.67;;;21.00;99.90;;;;;;5033166;28;20430;-83
2023/07/24 07:52:42;;;;;;;4.00;2.50;;;21.00;99.90;;;;;;5033092;28;20489;-83
2023/07/24 07:55:10;;;;;;;7.57;3.03;;;20.90;99.90;;;;;;5033481;28;20457;-83
2023/07/24 07:57:38;;;;;;;5.23;3.13;;;20.80;99.90;;;;;;5033078;28;20926;-83
2023/07/24 08:00:06;;;;;;;13.60;3.67;;;20.70;99.90;;;;;;5033314;28;20441;-82
2023/07/24 08:02:34;;;;;;;5.10;2.57;;;20.70;99.90;;;;;;5033059;28;20469;-83
2023/07/24 08:05:01;;;;;;;4.30;2.47;;;20.70;99.90;;;;;;5033261;28;20454;-83
2023/07/24 08:07:27;;;;;;;4.30;1.90;;;20.50;99.90;;;;;;5032956;28;20824;-83
2023/07/24 08:09:56;;;;;;;5.70;2.77;;;20.30;99.90;;;;;;5034918;28;20457;-82
2023/07/24 08:12:22;;;;;;;4.20;2.20;;;19.90;99.90;;;;;;5037099;28;20525;-81
2023/07/24 08:14:49;;;;;;;6.37;2.60;;;19.60;99.90;;;;;;5036840;28;20458;-82
2023/07/24 08:17:16;;;;;;;2.90;1.70;;;19.20;99.90;;;;;;5037085;28;20446;-82
2023/07/24 08:19:44;;;;;;;4.00;1.70;;;19.00;99.90;;;;;;5036835;28;20435;-82
2023/07/24 08:22:11;;;;;;;8.13;2.30;;;18.80;99.90;;;;;;5036980;28;20479;-82
2023/07/24 08:24:38;;;;;;;2.97;1.10;;;18.60;99.90;;;;;;5036831;28;20450;-82
2023/07/24 08:27:05;;;;;;;1.60;1.20;;;18.50;99.90;;;;;;5035321;28;20478;-82
2023/07/24 08:29:33;;;;;;;4.90;1.93;;;18.30;99.90;;;;;;5035384;28;20960;-83
2023/07/24 08:31:59;;;;;;;2.57;1.63;;;18.20;99.90;;;;;;5035154;28;20578;-83
2023/07/24 08:34:26;;;;;;;2.67;1.80;;;18.20;99.90;;;;;;5035702;28;20785;-83
2023/07/24 08:36:54;;;;;;;3.07;1.40;;;18.10;99.90;;;;;;5035607;28;20450;-83
2023/07/24 08:39:21;;;;;;;3.03;1.77;;;18.10;99.90;;;;;;5035482;28;20458;-83
2023/07/24 08:41:48;;;;;;;2.20;1.40;;;17.90;99.90;;;;;;5035402;28;20466;-82
2023/07/24 08:44:15;;;;;;;2.53;1.43;;;17.90;99.90;;;;;;5035423;28;20454;-83
2023/07/24 08:46:45;;;;;;;2.07;1.93;;;18.00;99.90;;;;;;5035397;28;20453;-82
2023/07/24 08:49:13;;;;;;;2.60;1.50;;;18.00;99.90;;;;;;5035644;28;20435;-82
2023/07/24 08:51:41;;;;;;;4.43;2.27;;;18.10;99.90;;;;;;5035247;28;20462;-83
2023/07/24 08:54:09;;;;;;;2.60;1.50;;;18.20;99.90;;;;;;5035181;28;20493;-84
2023/07/24 08:56:37;;;;;;;4.07;2.10;;;18.20;99.90;;;;;;5035253;28;20457;-83
2023/07/24 08:59:04;;;;;;;2.60;1.07;;;18.10;99.90;;;;;;5034865;28;20451;-83
2023/07/24 09:01:31;;;;;;;4.10;1.73;;;18.30;99.90;;;;;;5035065;28;20474;-83
2023/07/24 09:03:58;;;;;;;4.67;1.70;;;18.20;99.90;;;;;;5035303;28;20450;-83
2023/07/24 09:06:26;;;;;;;3.87;2.30;;;18.20;99.90;;;;;;5035075;28;20461;-83
2023/07/24 09:08:55;;;;;;;3.43;2.03;;;18.10;99.90;;;;;;5035720;28;20472;-83
2023/07/24 09:11:23;;;;;;;2.13;1.53;;;18.10;99.90;;;;;;5034896;28;20474;-84
2023/07/24 09:13:50;;;;;;;4.70;1.67;;;18.20;99.90;;;;;;5034921;28;20470;-83
2023/07/24 09:16:24;;;;;;;3.93;1.70;;;18.30;99.90;;;;;;5035031;28;20465;-83
2023/07/24 09:18:52;;;;;;;2.60;1.30;;;18.50;99.90;;;;;;5034573;28;20550;-83
2023/07/24 09:21:29;;;;;;;2.00;1.80;;;18.60;99.90;;;;;;5034720;28;20475;-84
2023/07/24 09:23:56;;;;;;;2.70;1.53;;;18.70;99.90;;;;;;5034919;28;20474;-84
2023/07/24 09:26:24;;;;;;;5.70;1.77;;;18.90;99.90;;;;;;4998321;28;1065493;-83
2023/07/24 09:28:55;;;;;;;3.70;1.43;;;19.00;99.90;;;;;;5035818;28;20454;-83
2023/07/24 09:31:22;;;;;;;2.60;1.57;;;19.20;99.90;;;;;;5035382;28;20816;-83
2023/07/24 09:33:48;;;;;;;4.63;1.60;;;19.20;99.90;;;;;;5035647;28;20490;-84
2023/07/24 09:36:15;;;;;;;4.10;1.60;;;19.40;99.90;;;;;;5035562;28;20803;-84
2023/07/24 09:38:43;;;;;;;2.70;2.03;;;19.50;99.90;;;;;;5035371;28;20462;-83
2023/07/24 09:41:09;;;;;;;3.47;2.73;;;19.50;99.90;;;;;;5035258;28;20475;-84
2023/07/24 09:43:38;;;;;;;3.63;1.93;;;19.50;99.90;;;;;;5035264;28;20439;-84
2023/07/24 09:46:06;;;;;;;3.50;2.00;;;19.50;99.90;;;;;;5035477;28;20458;-83
2023/07/24 09:48:34;;;;;;;4.27;1.80;;;19.70;99.90;;;;;;5035531;28;20470;-83
2023/07/24 09:51:01;;;;;;;5.43;2.00;;;19.80;99.90;;;;;;5035308;28;20463;-84
2023/07/24 09:53:34;;;;;;;5.00;2.37;;;19.70;99.90;;;;;;5035335;28;20478;-84
2023/07/24 09:56:03;;;;;;;3.83;1.80;;;19.70;99.90;;;;;;5035381;28;20501;-83
2023/07/24 09:58:30;;;;;;;2.33;1.70;;;19.70;99.90;;;;;;5035317;28;20922;-84
2023/07/24 10:00:59;;;;;;;2.33;2.10;;;19.70;99.90;;;;;;5035144;28;20479;-83
2023/07/24 10:03:26;;;;;;;4.70;2.40;;;19.60;99.90;;;;;;5035222;28;20443;-83
2023/07/24 10:05:54;;;;;;;3.10;1.83;;;19.70;99.90;;;;;;5035167;28;20435;-82
2023/07/24 10:08:21;;;;;;;7.53;2.33;;;19.60;99.90;;;;;;5035146;28;20945;-82
2023/07/24 10:10:50;;;;;;;4.83;2.50;;;19.60;99.90;;;;;;5034841;28;20847;-83
2023/07/24 10:13:18;;;;;;;2.27;1.53;;;19.60;99.90;;;;;;5034873;28;20488;-83
2023/07/24 10:15:47;;;;;;;4.77;2.50;;;19.60;99.90;;;;;;5034926;28;20447;-83
2023/07/24 10:18:17;;;;;;;5.73;2.33;;;19.60;99.90;;;;;;5034891;28;20443;-83
2023/07/24 10:20:44;;;;;;;5.80;2.37;;;19.60;99.90;;;;;;5034784;28;20470;-83
2023/07/24 10:23:16;;;;;;;2.67;1.83;;;19.60;99.90;;;;;;5034800;28;20629;-83
2023/07/24 10:25:46;;;;;;;3.13;2.53;;;19.50;99.90;;;;;;5034515;28;20478;-83
2023/07/24 10:28:16;;;;;;;6.50;3.20;;;19.40;99.90;;;;;;5034849;28;20455;-82
2023/07/24 10:30:43;;;;;;;3.03;1.80;;;19.30;99.90;;;;;;5034603;28;20474;-82
2023/07/24 10:33:12;;;;;;;2.23;2.03;;;19.20;99.90;;;;;;5033784;28;20486;-82
2023/07/24 10:35:42;;;;;;;3.73;2.13;;;19.10;99.90;;;;;;5034283;28;20451;-82
2023/07/24 10:38:09;;;;;;;6.00;2.17;;;19.00;99.90;;;;;;5034503;28;20812;-83
2023/07/24 10:40:36;;;;;;;4.37;3.10;;;18.90;99.90;;;;;;5034403;28;20470;-83
2023/07/24 10:43:06;;;;;;;4.63;2.30;;;18.80;99.90;;;;;;5034129;28;20447;-83
2023/07/24 10:45:40;;;;;;;2.23;1.60;;;18.50;99.90;;;;;;5034291;28;20442;-82
2023/07/24 10:48:11;;;;;;;4.60;2.10;;;18.40;99.90;;;;;;5034225;28;20442;-82
2023/07/24 10:50:40;;;;;;;4.30;2.60;;;18.20;99.90;;;;;;5033942;28;20549;-80
2023/07/24 10:53:07;;;;;;;10.47;2.53;;;18.10;99.90;;;;;;5034235;28;20481;-79
2023/07/24 10:55:33;;;;;;;5.10;2.23;;;18.00;99.90;;;;;;5034215;28;20450;-78
2023/07/24 10:58:00;;;;;;;3.70;1.90;;;17.90;99.90;;;;;;5034037;28;20423;-79
2023/07/24 11:00:27;;;;;;;2.87;1.70;;;17.90;99.90;;;;;;5033775;28;20954;-77
2023/07/24 11:02:55;;;;;;;3.80;1.80;;;17.90;99.90;;;;;;5034927;28;20447;-77
2023/07/24 11:05:22;;;;;;;4.90;2.23;;;17.90;99.90;;;;;;5033972;28;20505;-78
2023/07/24 11:07:50;;;;;;;2.23;1.50;;;17.90;99.90;;;;;;5033887;28;20861;-78
2023/07/24 11:10:18;;;;;;;2.43;1.70;;;17.80;99.90;;;;;;5033908;28;20529;-79
2023/07/24 11:12:45;;;;;;;3.17;1.87;;;17.70;99.90;;;;;;5034338;28;20787;-79
2023/07/24 11:15:13;;;;;;;4.37;1.97;;;17.70;99.90;;;;;;5033552;28;20946;-79
2023/07/24 11:17:41;;;;;;;4.70;2.37;;;17.70;99.90;;;;;;5033777;28;20476;-78
2023/07/24 11:20:10;;;;;;;2.37;1.63;;;17.70;99.90;;;;;;5033804;28;20439;-78
2023/07/24 11:22:40;;;;;;;3.70;2.40;;;17.60;99.90;;;;;;5033749;28;20454;-78
2023/07/24 11:25:09;;;;;;;3.80;1.43;;;17.60;99.90;;;;;;5033432;28;20479;-77
2023/07/24 11:27:41;;;;;;;2.83;1.87;;;17.60;99.90;;;;;;5034351;28;20930;-78
2023/07/24 11:30:09;;;;;;;3.50;1.87;;;17.60;99.90;;;;;;5033691;28;20439;-79
2023/07/24 11:32:36;;;;;;;3.63;2.07;;;17.60;99.90;;;;;;5033166;28;20528;-81
2023/07/24 11:35:03;;;;;;;3.00;2.10;;;17.60;99.90;;;;;;5033407;28;20616;-80
2023/07/24 11:37:30;;;;;;;6.23;2.23;;;17.80;99.90;;;;;;5033211;28;20869;-80
2023/07/24 11:39:58;;;;;;;7.13;2.20;;;18.10;99.90;;;;;;5033551;28;20447;-81
2023/07/24 11:42:28;;;;;;;9.00;2.20;;;18.40;99.90;;;;;;5033181;28;20553;-81
2023/07/24 11:44:55;;;;;;;2.80;1.77;;;18.40;99.90;;;;;;5033393;28;20415;-81
2023/07/24 11:47:21;;;;;;;4.83;2.43;;;18.40;99.90;;;;;;5033144;28;20439;-81
2023/07/24 11:49:58;;;;;;;4.80;1.70;;;18.40;99.90;;;;;;5033828;28;20477;-81
2023/07/24 11:52:25;;;;;;;4.70;1.80;;;18.30;99.90;;;;;;5033292;28;20593;-81
2023/07/24 11:55:00;;;;;;;3.30;1.60;;;18.30;99.90;;;;;;5032954;28;20997;-82
2023/07/24 11:57:29;;;;;;;1.60;1.40;;;18.30;99.90;;;;;;5033569;28;20448;-82
2023/07/24 11:59:57;;;;;;;3.87;2.40;;;18.30;99.90;;;;;;5033254;28;20939;-82
2023/07/24 12:02:26;;;;;;;2.90;1.43;;;18.30;99.90;;;;;;5032921;28;21165;-84
2023/07/24 12:05:02;;;;;;;3.77;1.80;;;18.40;99.90;;;;;;5033233;28;20454;-83
2023/07/24 12:07:33;;;;;;;3.63;1.83;;;18.50;99.90;;;;;;5033285;28;20474;-83
2023/07/24 12:10:01;;;;;;;2.03;1.87;;;18.70;99.90;;;;;;5032889;28;20454;-83
2023/07/24 12:12:40;;;;;;;5.30;2.10;;;18.90;99.90;;;;;;5033079;28;20467;-84
2023/07/24 12:15:08;;;;;;;2.80;2.00;;;19.00;99.90;;;;;;5033140;28;20474;-84
2023/07/24 12:17:34;;;;;;;4.93;2.17;;;19.10;99.90;;;;;;5032918;28;20445;-83
2023/07/24 12:20:02;;;;;;;3.70;2.07;;;19.10;99.90;;;;;;5032852;28;20435;-83
2023/07/24 12:22:28;;;;;;;4.13;2.83;;;19.30;99.90;;;;;;5033064;28;20479;-83
2023/07/24 12:24:55;;;;;;;2.57;1.63;;;19.50;99.90;;;;;;5032848;28;20443;-83
2023/07/24 12:27:22;;;;;;;2.10;1.90;;;19.70;99.90;;;;;;5032832;28;20906;-83
2023/07/24 12:29:50;;;;;;;4.17;2.17;;;19.70;99.90;;;;;;5032787;28;20446;-82
2023/07/24 12:32:17;;;;;;;2.87;2.30;;;19.70;99.90;;;;;;5032994;28;20475;-83
2023/07/24 12:34:44;;;;;;;4.60;1.73;;;19.80;99.90;;;;;;5032936;28;20486;-83
2023/07/24 12:37:11;;;;;;;2.27;1.87;;;19.80;99.90;;;;;;5032678;28;20461;-82
2023/07/24 12:39:37;;;;;;;4.30;2.07;;;19.70;99.90;;;;;;5032975;28;20450;-83
2023/07/24 12:42:06;;;;;;;4.27;1.80;;;19.70;99.90;;;;;;5032628;28;20469;-83
2023/07/24 12:44:32;;;;;;;2.77;1.80;;;19.70;99.90;;;;;;5032853;28;20435;-83
2023/07/24 12:47:00;;;;;;;4.40;2.20;;;19.70;99.90;;;;;;5032578;28;20450;-82